Time;durP1;ratioP1;P1;durP2;ratioP2;P2;SDS_P1;SDS_P2;PMS_P1;PMS_P2;Temp;Humidity;BMP_temperature;BMP_pressure;BME280_temperature;BME280_humidity;BME280_pressure;Samples;Min_cycle;Max_cycle;Signal;HPM_P1;HPM_P2
2021/09/14 00:01:56;;;;;;;9.68;2.90;;;;;;;;;;4990325;28;20235;-62
2021/09/14 00:04:24;;;;;;;5.82;2.58;;;;;;;;;;5010017;28;20040;-61
2021/09/14 00:06:52;;;;;;;6.50;2.78;;;;;;;;;;4976290;28;20044;-62
2021/09/14 00:09:20;;;;;;;10.10;3.08;;;;;;;;;;5010507;28;20041;-62
2021/09/14 00:11:45;;;;;;;11.93;3.45;;;;;;;;;;5008185;28;20038;-62
2021/09/14 00:14:13;;;;;;;5.53;2.78;;;;;;;;;;4992842;28;20024;-62
2021/09/14 00:16:41;;;;;;;5.03;2.80;;;;;;;;;;5009718;28;20025;-61
2021/09/14 00:19:08;;;;;;;6.78;2.75;;;;;;;;;;5007362;28;20037;-60
2021/09/14 00:21:36;;;;;;;9.15;2.92;;;;;;;;;;4974321;28;20668;-61
2021/09/14 00:24:05;;;;;;;8.88;2.53;;;;;;;;;;5008882;28;20033;-61
2021/09/14 00:26:35;;;;;;;6.20;3.40;;;;;;;;;;5007869;28;20052;-61
2021/09/14 00:29:02;;;;;;;6.72;2.80;;;;;;;;;;4986292;28;20044;-59
2021/09/14 00:31:28;;;;;;;6.75;3.03;;;;;;;;;;5005753;28;20033;-61
2021/09/14 00:33:55;;;;;;;7.45;3.08;;;;;;;;;;5007453;28;20056;-61
2021/09/14 00:36:20;;;;;;;6.13;3.13;;;;;;;;;;4992281;28;20040;-61
2021/09/14 00:38:47;;;;;;;9.75;3.38;;;;;;;;;;5009534;28;20081;-62
2021/09/14 00:41:15;;;;;;;9.80;3.30;;;;;;;;;;5008400;28;20171;-62
2021/09/14 00:43:53;;;;;;;8.55;2.95;;;;;;;;;;5005240;28;20037;-60
2021/09/14 00:46:21;;;;;;;3.58;2.65;;;;;;;;;;5009292;28;20044;-61
2021/09/14 00:48:48;;;;;;;5.90;2.90;;;;;;;;;;4992498;28;20029;-61
2021/09/14 00:51:16;;;;;;;8.50;3.13;;;;;;;;;;4986247;28;20038;-62
2021/09/14 00:53:47;;;;;;;13.40;2.80;;;;;;;;;;5009691;28;20022;-61
2021/09/14 00:56:19;;;;;;;5.30;2.90;;;;;;;;;;5009182;28;20450;-61
2021/09/14 00:58:50;;;;;;;9.45;2.83;;;;;;;;;;5006178;28;20033;-61
2021/09/14 01:01:18;;;;;;;8.10;3.10;;;;;;;;;;5008419;28;20057;-61
2021/09/14 01:03:43;;;;;;;5.32;2.58;;;;;;;;;;5008654;28;20033;-62
2021/09/14 01:06:09;;;;;;;5.57;3.17;;;;;;;;;;4990262;28;20057;-61
2021/09/14 01:08:39;;;;;;;5.82;3.20;;;;;;;;;;4977433;28;20057;-61
2021/09/14 01:11:07;;;;;;;7.50;4.05;;;;;;;;;;5007077;28;20034;-63
2021/09/14 01:13:35;;;;;;;11.60;4.20;;;;;;;;;;4991432;28;20029;-62
2021/09/14 01:16:04;;;;;;;8.32;3.50;;;;;;;;;;5009859;28;20859;-62
2021/09/14 01:18:30;;;;;;;7.55;3.97;;;;;;;;;;5007657;28;20806;-62
2021/09/14 01:20:56;;;;;;;6.35;3.90;;;;;;;;;;4996578;28;20033;-62
2021/09/14 01:23:27;;;;;;;5.55;3.45;;;;;;;;;;5009452;28;20068;-61
2021/09/14 01:25:55;;;;;;;8.88;3.67;;;;;;;;;;5004557;28;20033;-62
2021/09/14 01:28:25;;;;;;;9.80;3.42;;;;;;;;;;4990945;28;20148;-62
2021/09/14 01:30:50;;;;;;;7.30;3.83;;;;;;;;;;4992951;28;20037;-62
2021/09/14 01:33:18;;;;;;;10.55;3.55;;;;;;;;;;4991350;28;20088;-62
2021/09/14 01:35:46;;;;;;;13.80;3.22;;;;;;;;;;5010036;28;20046;-62
2021/09/14 01:38:17;;;;;;;3.50;2.42;;;;;;;;;;4985876;28;20400;-61
2021/09/14 01:40:47;;;;;;;5.80;3.03;;;;;;;;;;5006197;28;20113;-63
2021/09/14 01:43:13;;;;;;;5.53;2.78;;;;;;;;;;5006839;28;20041;-61
2021/09/14 01:45:43;;;;;;;10.02;4.07;;;;;;;;;;5007857;28;20027;-62
2021/09/14 01:48:12;;;;;;;5.43;3.08;;;;;;;;;;4988326;28;20504;-62
2021/09/14 01:50:41;;;;;;;7.38;3.90;;;;;;;;;;5016961;28;20033;-62
2021/09/14 01:53:07;;;;;;;5.75;3.30;;;;;;;;;;5005789;28;20129;-62
2021/09/14 01:55:32;;;;;;;18.50;3.00;;;;;;;;;;5008216;28;20877;-60
2021/09/14 01:58:03;;;;;;;5.82;2.95;;;;;;;;;;4984970;28;20037;-62
2021/09/14 02:00:38;;;;;;;9.63;3.33;;;;;;;;;;5004752;28;20026;-62
2021/09/14 02:08:46;;;;;;;15.10;3.42;;;;;;;;;;5010269;28;20496;-62
2021/09/14 02:59:37;;;;;;;6.45;2.42;;;;;;;;;;5024544;28;20037;-61
2021/09/14 03:02:07;;;;;;;13.73;3.58;;;;;;;;;;5025452;28;20088;-61
2021/09/14 03:04:34;;;;;;;7.65;2.78;;;;;;;;;;5026276;28;20031;-61
2021/09/14 03:06:59;;;;;;;6.10;3.30;;;;;;;;;;5008724;28;20045;-62
2021/09/14 03:09:29;;;;;;;5.57;2.75;;;;;;;;;;5005293;28;20037;-62
2021/09/14 03:11:55;;;;;;;7.38;3.13;;;;;;;;;;4994594;28;20025;-62
2021/09/14 03:14:21;;;;;;;8.73;3.40;;;;;;;;;;4988565;28;20021;-60
2021/09/14 03:16:47;;;;;;;7.07;3.47;;;;;;;;;;5011326;28;20051;-62
2021/09/14 03:19:15;;;;;;;11.85;3.60;;;;;;;;;;5026486;28;20047;-62
2021/09/14 03:21:41;;;;;;;7.38;3.65;;;;;;;;;;5024687;28;20041;-62
2021/09/14 03:24:09;;;;;;;8.75;3.35;;;;;;;;;;5009979;28;20103;-62
2021/09/14 03:26:35;;;;;;;7.38;3.05;;;;;;;;;;5025881;28;21871;-62
2021/09/14 03:29:01;;;;;;;13.77;3.63;;;;;;;;;;5004061;28;20044;-62
2021/09/14 03:31:26;;;;;;;6.43;2.95;;;;;;;;;;5002483;28;20667;-62
2021/09/14 03:33:51;;;;;;;14.70;3.08;;;;;;;;;;5007617;28;20044;-62
2021/09/14 03:36:22;;;;;;;7.25;3.17;;;;;;;;;;5011601;28;20799;-62
2021/09/14 03:38:52;;;;;;;8.27;3.10;;;;;;;;;;5009195;28;20103;-62
2021/09/14 03:41:21;;;;;;;8.32;3.75;;;;;;;;;;5011055;28;20044;-61
2021/09/14 03:43:46;;;;;;;8.95;4.00;;;;;;;;;;5006026;28;20033;-61
2021/09/14 03:46:15;;;;;;;10.02;3.67;;;;;;;;;;5008222;28;20037;-61
2021/09/14 03:48:41;;;;;;;8.63;3.35;;;;;;;;;;5010825;28;20028;-61
2021/09/14 03:51:06;;;;;;;9.20;4.20;;;;;;;;;;5010308;28;20870;-62
2021/09/14 03:53:32;;;;;;;11.40;4.03;;;;;;;;;;5023976;28;20841;-62
2021/09/14 03:56:02;;;;;;;5.22;3.25;;;;;;;;;;5010699;28;20120;-60
2021/09/14 03:58:30;;;;;;;10.90;4.38;;;;;;;;;;4990854;28;20931;-61
2021/09/14 04:00:55;;;;;;;8.75;3.75;;;;;;;;;;5006840;28;22033;-61
2021/09/14 04:03:36;;;;;;;7.15;3.70;;;;;;;;;;5026840;28;20056;-63
2021/09/14 04:11:14;;;;;;;16.63;3.73;;;;;;;;;;5025183;28;20052;-62
2021/09/14 04:13:42;;;;;;;15.18;4.28;;;;;;;;;;4989843;28;20391;-62
2021/09/14 04:16:10;;;;;;;12.60;4.22;;;;;;;;;;5026014;28;20059;-63
2021/09/14 04:18:38;;;;;;;6.13;3.63;;;;;;;;;;5022558;28;20033;-62
2021/09/14 04:21:05;;;;;;;7.28;3.45;;;;;;;;;;5006662;28;20048;-61
2021/09/14 04:23:30;;;;;;;8.82;3.83;;;;;;;;;;4996967;28;20040;-61
2021/09/14 04:25:58;;;;;;;18.23;6.47;;;;;;;;;;5028691;28;20032;-61
2021/09/14 04:28:25;;;;;;;10.82;3.85;;;;;;;;;;4996855;28;20036;-60
2021/09/14 04:30:50;;;;;;;8.30;3.83;;;;;;;;;;5026959;28;20040;-62
2021/09/14 04:33:16;;;;;;;15.90;4.00;;;;;;;;;;5010952;28;20148;-62
2021/09/14 04:35:43;;;;;;;10.70;3.40;;;;;;;;;;4995570;28;20672;-63
2021/09/14 04:38:09;;;;;;;11.90;3.85;;;;;;;;;;5029088;28;20420;-62
2021/09/14 04:40:35;;;;;;;10.35;3.40;;;;;;;;;;5011649;28;20107;-61
2021/09/14 04:43:01;;;;;;;13.95;3.53;;;;;;;;;;4998556;28;20037;-62
2021/09/14 04:45:29;;;;;;;11.77;4.13;;;;;;;;;;4998795;28;20029;-63
2021/09/14 04:47:54;;;;;;;14.10;4.00;;;;;;;;;;5006047;28;20120;-63
2021/09/14 04:50:20;;;;;;;9.68;3.55;;;;;;;;;;4996322;28;20039;-62
2021/09/14 04:52:45;;;;;;;12.43;3.40;;;;;;;;;;5001630;28;20471;-62
2021/09/14 04:55:11;;;;;;;8.55;3.65;;;;;;;;;;5012266;28;20036;-62
2021/09/14 04:57:36;;;;;;;6.32;3.53;;;;;;;;;;4997474;28;20164;-62
2021/09/14 05:00:03;;;;;;;8.95;3.35;;;;;;;;;;4992833;28;20666;-62
2021/09/14 05:02:30;;;;;;;11.82;4.03;;;;;;;;;;5013192;28;20079;-62
2021/09/14 05:04:59;;;;;;;8.98;3.30;;;;;;;;;;5000110;28;20128;-61
2021/09/14 05:07:24;;;;;;;9.68;3.22;;;;;;;;;;4994328;28;20055;-60
2021/09/14 05:09:50;;;;;;;9.48;3.50;;;;;;;;;;4999150;28;20546;-61
2021/09/14 05:12:16;;;;;;;11.88;3.55;;;;;;;;;;5012469;28;20124;-62
2021/09/14 05:14:42;;;;;;;13.45;3.65;;;;;;;;;;5012344;28;20032;-62
2021/09/14 05:17:09;;;;;;;11.45;3.50;;;;;;;;;;5007851;28;20159;-61
2021/09/14 05:19:37;;;;;;;11.85;3.88;;;;;;;;;;5030311;28;20446;-63
2021/09/14 05:22:05;;;;;;;23.27;8.75;;;;;;;;;;5007512;28;20025;-62
2021/09/14 05:24:35;;;;;;;24.00;7.13;;;;;;;;;;5015233;28;20037;-61
2021/09/14 05:27:01;;;;;;;8.23;4.47;;;;;;;;;;5013242;28;20041;-61
2021/09/14 05:29:30;;;;;;;9.18;3.58;;;;;;;;;;5011602;28;20024;-63
2021/09/14 05:31:56;;;;;;;10.05;3.60;;;;;;;;;;4997641;28;20037;-61
2021/09/14 05:34:22;;;;;;;6.35;2.95;;;;;;;;;;5019228;28;20032;-61
2021/09/14 05:36:47;;;;;;;11.02;4.32;;;;;;;;;;4994464;28;20056;-62
2021/09/14 05:39:13;;;;;;;9.65;3.72;;;;;;;;;;5018651;28;20040;-62
2021/09/14 05:41:38;;;;;;;6.75;3.45;;;;;;;;;;5010985;28;20066;-60
2021/09/14 05:44:04;;;;;;;9.32;3.70;;;;;;;;;;5010969;28;20111;-59
2021/09/14 05:46:30;;;;;;;22.55;7.35;;;;;;;;;;5030437;28;20036;-60
2021/09/14 05:49:00;;;;;;;13.27;4.80;;;;;;;;;;5028121;28;20028;-62
2021/09/14 05:51:26;;;;;;;9.55;3.25;;;;;;;;;;4993850;28;20402;-61
2021/09/14 05:53:51;;;;;;;7.10;2.83;;;;;;;;;;5026508;28;20120;-60
2021/09/14 05:56:17;;;;;;;11.00;2.83;;;;;;;;;;5030242;28;20111;-60
2021/09/14 05:58:42;;;;;;;6.57;2.67;;;;;;;;;;5028035;28;20028;-61
2021/09/14 06:01:09;;;;;;;6.43;3.00;;;;;;;;;;5030673;28;20037;-61
2021/09/14 06:03:37;;;;;;;7.68;3.03;;;;;;;;;;4990501;28;20020;-61
2021/09/14 06:06:02;;;;;;;12.77;2.92;;;;;;;;;;4998011;28;20039;-60
2021/09/14 06:08:28;;;;;;;5.00;3.00;;;;;;;;;;4996735;28;20077;-61
2021/09/14 06:10:57;;;;;;;7.22;2.95;;;;;;;;;;5014488;28;20048;-63
2021/09/14 06:13:22;;;;;;;7.38;2.30;;;;;;;;;;5012787;28;20039;-63
2021/09/14 06:15:55;;;;;;;13.48;2.78;;;;;;;;;;5011010;28;20048;-61
2021/09/14 06:18:21;;;;;;;8.60;3.13;;;;;;;;;;5011811;28;20040;-62
2021/09/14 06:20:47;;;;;;;8.55;2.55;;;;;;;;;;5024995;28;20040;-62
2021/09/14 06:23:16;;;;;;;7.13;2.53;;;;;;;;;;5012348;28;21281;-63
2021/09/14 06:25:42;;;;;;;7.72;2.80;;;;;;;;;;5013475;28;20075;-62
2021/09/14 06:28:09;;;;;;;9.77;2.47;;;;;;;;;;4993831;28;20029;-62
2021/09/14 06:30:35;;;;;;;7.75;2.60;;;;;;;;;;5008806;28;20447;-62
2021/09/14 06:33:01;;;;;;;7.10;2.58;;;;;;;;;;5002220;28;20035;-62
2021/09/14 06:35:27;;;;;;;10.38;2.38;;;;;;;;;;5009737;28;20038;-62
2021/09/14 06:37:52;;;;;;;8.35;2.28;;;;;;;;;;5027674;28;20028;-63
2021/09/14 06:40:18;;;;;;;11.05;2.42;;;;;;;;;;5007981;28;20490;-62
2021/09/14 06:42:43;;;;;;;5.95;2.33;;;;;;;;;;4990823;28;20175;-61
2021/09/14 06:45:12;;;;;;;5.10;2.08;;;;;;;;;;5028490;28;20478;-62
2021/09/14 06:47:40;;;;;;;3.13;1.90;;;;;;;;;;5012794;28;20037;-62
2021/09/14 06:50:06;;;;;;;11.35;2.05;;;;;;;;;;4975741;28;20037;-63
2021/09/14 06:52:35;;;;;;;4.43;2.20;;;;;;;;;;5026778;28;20028;-62
2021/09/14 06:55:01;;;;;;;4.80;2.03;;;;;;;;;;5006854;28;20033;-62
2021/09/14 06:57:26;;;;;;;6.25;1.95;;;;;;;;;;5003195;28;20035;-63
2021/09/14 06:59:51;;;;;;;4.97;1.88;;;;;;;;;;4990325;28;20045;-62
2021/09/14 07:02:20;;;;;;;7.68;2.42;;;;;;;;;;5028738;28;20044;-63
2021/09/14 07:04:47;;;;;;;2.25;1.73;;;;;;;;;;5011747;28;20060;-62
2021/09/14 07:07:12;;;;;;;2.45;1.77;;;;;;;;;;5006327;28;20505;-63
2021/09/14 07:09:40;;;;;;;7.90;1.90;;;;;;;;;;5027663;28;20024;-64
2021/09/14 07:12:06;;;;;;;7.10;2.20;;;;;;;;;;5028367;28;20111;-63
2021/09/14 07:14:31;;;;;;;9.60;1.80;;;;;;;;;;5010551;28;20025;-63
2021/09/14 07:16:57;;;;;;;9.13;1.65;;;;;;;;;;5012879;28;20056;-63
2021/09/14 07:19:26;;;;;;;7.22;2.15;;;;;;;;;;4994679;28;20037;-63
2021/09/14 07:21:52;;;;;;;5.40;2.03;;;;;;;;;;5011833;28;20029;-63
2021/09/14 07:24:17;;;;;;;5.28;1.65;;;;;;;;;;4994273;28;20061;-62
2021/09/14 07:26:43;;;;;;;2.92;1.55;;;;;;;;;;5030526;28;20417;-63
2021/09/14 07:29:11;;;;;;;3.83;1.35;;;;;;;;;;4992122;28;20045;-63
2021/09/14 07:31:41;;;;;;;6.65;1.88;;;;;;;;;;5014130;28;20520;-63
2021/09/14 07:34:06;;;;;;;4.45;1.73;;;;;;;;;;5017749;28;20128;-65
2021/09/14 07:36:34;;;;;;;6.97;2.38;;;;;;;;;;4989085;28;20032;-63
2021/09/14 07:38:59;;;;;;;5.72;2.10;;;;;;;;;;5012340;28;20044;-62
2021/09/14 07:41:25;;;;;;;6.03;1.90;;;;;;;;;;4998965;28;20981;-63
2021/09/14 07:43:50;;;;;;;10.15;3.05;;;;;;;;;;5004523;28;20037;-63
2021/09/14 07:46:18;;;;;;;5.63;2.47;;;;;;;;;;5011596;28;20356;-63
2021/09/14 07:48:44;;;;;;;4.35;2.33;;;;;;;;;;4989193;28;20051;-61
2021/09/14 07:51:10;;;;;;;5.68;2.35;;;;;;;;;;4997858;28;20033;-61
2021/09/14 07:53:40;;;;;;;8.13;3.10;;;;;;;;;;5013257;28;20519;-61
2021/09/14 07:56:05;;;;;;;5.30;2.80;;;;;;;;;;5012749;28;20048;-62
2021/09/14 07:58:31;;;;;;;8.13;3.60;;;;;;;;;;5000912;28;20029;-62
2021/09/14 08:00:56;;;;;;;4.82;2.88;;;;;;;;;;4997389;28;20032;-61
2021/09/14 08:03:22;;;;;;;10.15;2.83;;;;;;;;;;5032299;28;21044;-61
2021/09/14 08:05:50;;;;;;;9.50;2.63;;;;;;;;;;5012466;28;20946;-62
2021/09/14 08:08:16;;;;;;;7.45;3.33;;;;;;;;;;5016610;28;20150;-62
2021/09/14 08:10:44;;;;;;;11.13;3.72;;;;;;;;;;4984955;28;20392;-61
2021/09/14 08:13:09;;;;;;;6.65;2.90;;;;;;;;;;5007927;28;20033;-62
2021/09/14 08:15:35;;;;;;;9.27;3.25;;;;;;;;;;5001183;28;20439;-61
2021/09/14 08:18:02;;;;;;;10.77;3.50;;;;;;;;;;5013997;28;20041;-61
2021/09/14 08:20:28;;;;;;;4.80;3.55;;;;;;;;;;5015515;28;20043;-63
2021/09/14 08:22:56;;;;;;;8.75;3.53;;;;;;;;;;5014450;28;20040;-64
2021/09/14 08:25:21;;;;;;;6.95;3.78;;;;;;;;;;4995541;28;20041;-62
2021/09/14 08:27:47;;;;;;;7.70;3.42;;;;;;;;;;5017627;28;20056;-62
2021/09/14 08:30:17;;;;;;;7.10;3.53;;;;;;;;;;5001002;28;20115;-62
2021/09/14 08:32:45;;;;;;;11.15;3.72;;;;;;;;;;5000085;28;20032;-61
2021/09/14 08:35:13;;;;;;;8.60;3.60;;;;;;;;;;5031293;28;20942;-62
2021/09/14 08:37:40;;;;;;;6.35;3.45;;;;;;;;;;5030289;28;20032;-61
2021/09/14 08:40:09;;;;;;;4.05;3.15;;;;;;;;;;5007161;28;20615;-62
2021/09/14 08:42:40;;;;;;;6.10;3.45;;;;;;;;;;5006027;28;20116;-62
2021/09/14 08:45:09;;;;;;;6.22;2.92;;;;;;;;;;5013498;28;20139;-61
2021/09/14 08:47:36;;;;;;;6.70;3.20;;;;;;;;;;5010073;28;21535;-62
2021/09/14 08:50:04;;;;;;;9.57;3.47;;;;;;;;;;5003696;28;20091;-61
2021/09/14 08:52:31;;;;;;;5.07;3.30;;;;;;;;;;4993975;28;20794;-61
2021/09/14 08:54:56;;;;;;;6.55;3.20;;;;;;;;;;5013117;28;20037;-62
2021/09/14 08:57:22;;;;;;;5.18;3.22;;;;;;;;;;5014436;28;20068;-60
2021/09/14 08:59:50;;;;;;;4.63;2.80;;;;;;;;;;4998073;28;20056;-62
2021/09/14 09:02:21;;;;;;;4.53;2.95;;;;;;;;;;5027707;28;20021;-62
2021/09/14 09:05:13;;;;;;;5.72;3.17;;;;;;;;;;5008608;28;20074;-62
2021/09/14 09:07:41;;;;;;;5.50;3.40;;;;;;;;;;5019293;28;20483;-61
2021/09/14 09:10:11;;;;;;;9.55;3.58;;;;;;;;;;5027002;28;20111;-61
2021/09/14 09:12:41;;;;;;;5.05;3.38;;;;;;;;;;4998857;28;20076;-61
2021/09/14 09:15:10;;;;;;;8.88;3.40;;;;;;;;;;5011132;28;20044;-60
2021/09/14 09:17:35;;;;;;;8.65;3.78;;;;;;;;;;5029464;28;20052;-61
2021/09/14 09:20:06;;;;;;;11.02;4.22;;;;;;;;;;5027741;28;20100;-61
2021/09/14 09:22:35;;;;;;;8.15;3.35;;;;;;;;;;5012578;28;20036;-62
2021/09/14 09:25:01;;;;;;;7.88;3.75;;;;;;;;;;5014585;28;20021;-61
2021/09/14 09:27:35;;;;;;;7.85;4.15;;;;;;;;;;5013704;28;21025;-62
2021/09/14 09:30:05;;;;;;;8.40;4.05;;;;;;;;;;5010075;28;20040;-61
2021/09/14 09:32:46;;;;;;;7.03;4.38;;;;;;;;;;5003099;28;20643;-61
2021/09/14 09:35:24;;;;;;;11.40;4.32;;;;;;;;;;5007699;28;20029;-60
2021/09/14 09:37:51;;;;;;;7.85;4.22;;;;;;;;;;5006536;28;20033;-62
2021/09/14 09:40:43;;;;;;;10.73;4.68;;;;;;;;;;4991775;28;20036;-61
2021/09/14 09:43:09;;;;;;;13.68;4.70;;;;;;;;;;5025213;28;20626;-62
2021/09/14 09:45:41;;;;;;;9.45;4.60;;;;;;;;;;5014854;28;20082;-60
2021/09/14 09:48:09;;;;;;;13.30;4.65;;;;;;;;;;4996408;28;20072;-60
2021/09/14 09:50:35;;;;;;;6.75;4.22;;;;;;;;;;4990046;28;20037;-59
2021/09/14 09:53:01;;;;;;;7.50;4.32;;;;;;;;;;5012178;28;20025;-60
2021/09/14 09:55:28;;;;;;;14.82;4.75;;;;;;;;;;5014461;28;20392;-60
2021/09/14 09:57:56;;;;;;;6.80;3.97;;;;;;;;;;5026527;28;20032;-60
2021/09/14 10:00:24;;;;;;;9.82;4.15;;;;;;;;;;5011503;28;20148;-61
2021/09/14 10:02:52;;;;;;;8.65;4.38;;;;;;;;;;5020629;28;20078;-60
2021/09/14 10:05:24;;;;;;;10.43;4.32;;;;;;;;;;5030335;28;20036;-60
2021/09/14 10:07:52;;;;;;;7.55;4.10;;;;;;;;;;5017934;28;20047;-61
2021/09/14 10:10:17;;;;;;;9.15;4.75;;;;;;;;;;4990317;28;21928;-62
2021/09/14 10:12:48;;;;;;;6.75;3.92;;;;;;;;;;5029270;28;20029;-61
2021/09/14 10:15:16;;;;;;;5.40;3.55;;;;;;;;;;4998839;28;20079;-60
2021/09/14 10:17:45;;;;;;;7.97;4.40;;;;;;;;;;5031101;28;21193;-59
2021/09/14 10:20:12;;;;;;;8.57;4.35;;;;;;;;;;5010976;28;20683;-62
2021/09/14 10:22:40;;;;;;;6.03;4.10;;;;;;;;;;5012460;28;20032;-59
2021/09/14 10:25:07;;;;;;;7.75;4.53;;;;;;;;;;4982636;28;20146;-61
2021/09/14 10:27:38;;;;;;;14.07;4.85;;;;;;;;;;5008964;28;20041;-61
2021/09/14 10:30:08;;;;;;;12.45;4.10;;;;;;;;;;5014446;28;20112;-61
2021/09/14 10:32:39;;;;;;;10.68;5.00;;;;;;;;;;5028506;28;20028;-60
2021/09/14 10:35:08;;;;;;;6.65;4.15;;;;;;;;;;5012727;28;20024;-61
2021/09/14 10:37:36;;;;;;;7.20;4.40;;;;;;;;;;4987450;28;20102;-61
2021/09/14 10:40:10;;;;;;;6.55;3.85;;;;;;;;;;5008998;28;20120;-62
2021/09/14 10:42:57;;;;;;;6.53;4.03;;;;;;;;;;5028558;28;20032;-60
2021/09/14 10:45:39;;;;;;;8.30;4.43;;;;;;;;;;5012375;28;20040;-60
2021/09/14 10:48:04;;;;;;;7.63;4.38;;;;;;;;;;5012717;28;20144;-60
2021/09/14 10:50:32;;;;;;;7.97;4.47;;;;;;;;;;4998899;28;20025;-60
2021/09/14 10:52:59;;;;;;;8.05;3.78;;;;;;;;;;5012530;28;20034;-60
2021/09/14 10:55:25;;;;;;;6.13;4.05;;;;;;;;;;5013853;28;20032;-61
2021/09/14 10:57:51;;;;;;;9.27;3.97;;;;;;;;;;5013939;28;20032;-60
2021/09/14 11:00:17;;;;;;;5.78;3.72;;;;;;;;;;5011041;28;20028;-60
2021/09/14 11:02:57;;;;;;;5.85;3.60;;;;;;;;;;4995457;28;20045;-61
2021/09/14 11:05:29;;;;;;;7.57;3.38;;;;;;;;;;5012274;28;20864;-62
2021/09/14 11:08:02;;;;;;;7.60;3.88;;;;;;;;;;4983802;28;20045;-59
2021/09/14 11:10:38;;;;;;;7.60;3.60;;;;;;;;;;5010642;28;20028;-60
2021/09/14 11:13:04;;;;;;;6.63;3.83;;;;;;;;;;5006959;28;20079;-60
2021/09/14 11:15:30;;;;;;;4.88;3.60;;;;;;;;;;5007040;28;20075;-61
2021/09/14 11:18:03;;;;;;;5.75;4.03;;;;;;;;;;5010120;28;20025;-62
2021/09/14 11:20:31;;;;;;;9.77;3.80;;;;;;;;;;5008146;28;20034;-61
2021/09/14 11:22:59;;;;;;;4.35;3.22;;;;;;;;;;4981878;28;20067;-61
2021/09/14 11:25:31;;;;;;;5.22;3.65;;;;;;;;;;5006637;28;20088;-60
2021/09/14 11:27:56;;;;;;;6.95;3.50;;;;;;;;;;5007490;28;20040;-61
2021/09/14 11:30:22;;;;;;;3.70;3.00;;;;;;;;;;5005806;28;20029;-61
2021/09/14 11:32:50;;;;;;;3.85;3.40;;;;;;;;;;5005391;28;20052;-61
2021/09/14 11:35:18;;;;;;;4.43;3.25;;;;;;;;;;5009039;28;20026;-61
2021/09/14 11:37:44;;;;;;;4.82;3.10;;;;;;;;;;5004601;28;20160;-61
2021/09/14 11:40:16;;;;;;;6.32;3.60;;;;;;;;;;4988350;28;20039;-61
2021/09/14 11:42:54;;;;;;;4.78;3.25;;;;;;;;;;5009349;28;20078;-61
2021/09/14 11:45:24;;;;;;;5.93;2.92;;;;;;;;;;5006852;28;20116;-61
2021/09/14 11:48:00;;;;;;;5.03;3.17;;;;;;;;;;5006200;28;20278;-60
2021/09/14 11:50:28;;;;;;;7.70;3.92;;;;;;;;;;5008531;28;20029;-60
2021/09/14 11:53:06;;;;;;;4.90;3.10;;;;;;;;;;5009214;28;20047;-59
2021/09/14 11:55:38;;;;;;;4.03;3.10;;;;;;;;;;5008557;28;20107;-60
2021/09/14 11:58:04;;;;;;;3.92;2.92;;;;;;;;;;5008164;28;20060;-61
2021/09/14 12:00:39;;;;;;;5.20;3.63;;;;;;;;;;5007826;28;20187;-61
2021/09/14 12:03:07;;;;;;;5.43;2.97;;;;;;;;;;5004871;28;20034;-60
2021/09/14 12:05:37;;;;;;;4.20;3.22;;;;;;;;;;5008742;28;20384;-61
2021/09/14 12:08:10;;;;;;;3.92;2.78;;;;;;;;;;5005996;28;20041;-61
2021/09/14 12:10:42;;;;;;;4.07;3.00;;;;;;;;;;5004188;28;20029;-61
2021/09/14 12:13:14;;;;;;;5.28;3.75;;;;;;;;;;5008476;28;20472;-60
2021/09/14 12:15:43;;;;;;;6.22;3.45;;;;;;;;;;5007929;28;20240;-61
2021/09/14 12:18:15;;;;;;;3.90;3.50;;;;;;;;;;5007810;28;20044;-61
2021/09/14 12:20:43;;;;;;;4.15;2.58;;;;;;;;;;5004796;28;20029;-61
2021/09/14 12:23:09;;;;;;;6.05;3.20;;;;;;;;;;5005657;28;20087;-60
2021/09/14 12:25:35;;;;;;;6.30;3.85;;;;;;;;;;5008696;28;20469;-61
2021/09/14 12:28:02;;;;;;;4.47;3.40;;;;;;;;;;4989694;28;20118;-61
2021/09/14 12:30:28;;;;;;;5.88;3.17;;;;;;;;;;5008686;28;20088;-60
2021/09/14 12:32:53;;;;;;;5.85;2.88;;;;;;;;;;5006887;28;20104;-61
2021/09/14 12:35:19;;;;;;;4.47;2.67;;;;;;;;;;5006575;28;21102;-60
2021/09/14 12:37:49;;;;;;;3.45;2.50;;;;;;;;;;5009239;28;20030;-60
2021/09/14 12:40:16;;;;;;;6.25;3.45;;;;;;;;;;4986378;28;20061;-60
2021/09/14 12:42:42;;;;;;;4.45;3.38;;;;;;;;;;5021765;28;20025;-60
2021/09/14 12:45:08;;;;;;;4.18;3.30;;;;;;;;;;5011031;28;20044;-60
2021/09/14 12:47:34;;;;;;;5.97;3.33;;;;;;;;;;5008675;28;20022;-60
2021/09/14 12:49:59;;;;;;;6.28;2.97;;;;;;;;;;5012529;28;20056;-60
2021/09/14 12:52:29;;;;;;;6.22;3.28;;;;;;;;;;4994962;28;20429;-60
2021/09/14 12:54:57;;;;;;;5.93;4.10;;;;;;;;;;5000414;28;20595;-60
2021/09/14 12:57:25;;;;;;;9.70;3.92;;;;;;;;;;4980057;28;20632;-59
2021/09/14 12:59:50;;;;;;;4.00;3.17;;;;;;;;;;5009001;28;20878;-60
2021/09/14 13:02:18;;;;;;;5.10;3.22;;;;;;;;;;5011528;28;20611;-60
2021/09/14 13:04:44;;;;;;;4.70;3.47;;;;;;;;;;5008812;28;20033;-60
2021/09/14 13:07:12;;;;;;;4.88;3.78;;;;;;;;;;5010700;28;20113;-60
2021/09/14 13:09:38;;;;;;;4.57;3.60;;;;;;;;;;5005461;28;20095;-60
2021/09/14 13:12:08;;;;;;;5.63;3.75;;;;;;;;;;5009838;28;20108;-61
2021/09/14 13:17:18;;;;;;;6.20;3.53;;;;;;;;;;4997236;28;20064;-60
2021/09/14 13:19:43;;;;;;;3.83;2.53;;;;;;;;;;5007859;28;20022;-60
2021/09/14 13:22:11;;;;;;;3.78;2.97;;;;;;;;;;4971617;28;20040;-60
2021/09/14 13:24:38;;;;;;;7.45;3.40;;;;;;;;;;5003482;28;20021;-60
2021/09/14 13:27:06;;;;;;;4.38;3.72;;;;;;;;;;5007796;28;20121;-59
2021/09/14 13:29:34;;;;;;;5.88;3.30;;;;;;;;;;4992176;28;20123;-60
2021/09/14 13:32:00;;;;;;;4.15;3.35;;;;;;;;;;4989027;28;20041;-60
2021/09/14 13:34:28;;;;;;;5.57;3.15;;;;;;;;;;5006249;28;20029;-59
2021/09/14 13:36:59;;;;;;;5.70;4.10;;;;;;;;;;5002959;28;20050;-61
2021/09/14 13:39:25;;;;;;;6.38;3.35;;;;;;;;;;4995457;28;20714;-59
2021/09/14 13:41:52;;;;;;;7.53;4.20;;;;;;;;;;5004638;28;20029;-60
2021/09/14 13:47:09;;;;;;;7.53;3.58;;;;;;;;;;5004002;28;20040;-60
2021/09/14 13:49:37;;;;;;;9.30;3.90;;;;;;;;;;5001771;28;20042;-60
2021/09/14 13:52:04;;;;;;;4.32;3.20;;;;;;;;;;4992856;28;20151;-60
2021/09/14 13:54:29;;;;;;;6.38;3.08;;;;;;;;;;5005787;28;20030;-60
2021/09/14 13:56:58;;;;;;;4.40;2.90;;;;;;;;;;4998643;28;20041;-61
2021/09/14 13:59:23;;;;;;;3.75;2.40;;;;;;;;;;4986831;28;20492;-61
2021/09/14 14:01:49;;;;;;;4.32;3.25;;;;;;;;;;4988517;28;20034;-61
2021/09/14 14:04:20;;;;;;;6.38;3.25;;;;;;;;;;4993520;28;20029;-60
2021/09/14 14:06:46;;;;;;;3.90;2.78;;;;;;;;;;4994342;28;20133;-61
2021/09/14 14:09:11;;;;;;;3.63;3.15;;;;;;;;;;5009591;28;20036;-61
2021/09/14 14:11:39;;;;;;;4.75;2.60;;;;;;;;;;4980118;28;20041;-61
2021/09/14 14:14:08;;;;;;;3.67;2.58;;;;;;;;;;5004451;28;20321;-61
2021/09/14 14:16:34;;;;;;;4.78;2.85;;;;;;;;;;5025834;28;20040;-61
2021/09/14 14:18:59;;;;;;;4.20;2.70;;;;;;;;;;5012707;28;20025;-62
2021/09/14 14:21:25;;;;;;;4.00;2.63;;;;;;;;;;5009568;28;20040;-61
2021/09/14 14:23:50;;;;;;;3.22;2.50;;;;;;;;;;4992710;28;20628;-61
2021/09/14 14:26:18;;;;;;;4.55;2.47;;;;;;;;;;4994801;28;20049;-61
2021/09/14 14:28:46;;;;;;;2.90;2.60;;;;;;;;;;5003346;28;20083;-62
2021/09/14 14:31:12;;;;;;;4.38;3.17;;;;;;;;;;5011623;28;20032;-62
2021/09/14 14:33:38;;;;;;;6.20;2.72;;;;;;;;;;5026434;28;20037;-61
2021/09/14 14:36:04;;;;;;;5.60;2.70;;;;;;;;;;4997064;28;20041;-60
2021/09/14 14:38:32;;;;;;;6.03;3.63;;;;;;;;;;5008860;28;20618;-60
2021/09/14 14:40:58;;;;;;;3.97;3.20;;;;;;;;;;5005896;28;20120;-61
2021/09/14 14:43:26;;;;;;;5.03;3.42;;;;;;;;;;5003180;28;20136;-62
2021/09/14 14:45:54;;;;;;;3.97;3.10;;;;;;;;;;5016189;28;20032;-60
2021/09/14 14:48:20;;;;;;;5.60;3.92;;;;;;;;;;4997446;28;20064;-62
2021/09/14 14:50:45;;;;;;;4.60;3.30;;;;;;;;;;5009155;28;20033;-60
2021/09/14 14:53:14;;;;;;;8.43;3.80;;;;;;;;;;5011301;28;20044;-60
2021/09/14 14:55:42;;;;;;;5.88;3.80;;;;;;;;;;5026089;28;20172;-61
2021/09/14 14:58:10;;;;;;;7.25;4.85;;;;;;;;;;5003715;28;20082;-61
2021/09/14 15:00:37;;;;;;;8.35;4.50;;;;;;;;;;5022366;28;20067;-60
2021/09/14 15:03:05;;;;;;;8.55;4.32;;;;;;;;;;5027534;28;20036;-61
2021/09/14 15:05:31;;;;;;;7.47;5.18;;;;;;;;;;5007233;28;20043;-61
2021/09/14 15:07:56;;;;;;;9.13;5.00;;;;;;;;;;5011432;28;21963;-61
2021/09/14 15:10:24;;;;;;;6.80;4.35;;;;;;;;;;5008123;28;20036;-61
2021/09/14 15:12:52;;;;;;;6.95;4.72;;;;;;;;;;5025517;28;20380;-61
2021/09/14 15:15:17;;;;;;;8.75;5.05;;;;;;;;;;5004226;28;20358;-61
2021/09/14 15:17:45;;;;;;;10.13;5.28;;;;;;;;;;4989380;28;20075;-61
2021/09/14 15:20:11;;;;;;;9.20;4.50;;;;;;;;;;4973308;28;20955;-61
2021/09/14 15:22:43;;;;;;;6.93;4.55;;;;;;;;;;5005717;28;20694;-61
2021/09/14 15:25:12;;;;;;;7.90;5.05;;;;;;;;;;5011672;28;20036;-62
2021/09/14 15:27:37;;;;;;;8.55;5.25;;;;;;;;;;5023843;28;20028;-61
2021/09/14 15:30:06;;;;;;;7.32;4.80;;;;;;;;;;5022919;28;20036;-62
2021/09/14 15:32:45;;;;;;;8.20;5.13;;;;;;;;;;4986774;28;20029;-61
2021/09/14 15:35:13;;;;;;;9.70;5.47;;;;;;;;;;5006952;28;20066;-61
2021/09/14 15:37:45;;;;;;;8.20;5.68;;;;;;;;;;5024876;28;20037;-60
2021/09/14 15:40:17;;;;;;;9.68;5.15;;;;;;;;;;4989176;28;20424;-60
2021/09/14 15:42:56;;;;;;;7.55;4.93;;;;;;;;;;4996123;28;20029;-61
2021/09/14 15:45:43;;;;;;;8.15;5.32;;;;;;;;;;4973317;28;20045;-61
2021/09/14 15:48:09;;;;;;;6.97;4.95;;;;;;;;;;4975177;28;20053;-61
2021/09/14 15:50:34;;;;;;;11.27;6.07;;;;;;;;;;4942384;28;20045;-60